Syoueimaru — JL6084 — position and weather

sailwx.info

Track history (hours):
 
Tides and Currents Weather Stations Pressure Air Temp Water Temp Dewpoint Dewpoint Depression Visibility Wind Speed Wind Dir Waves Ship Positions

Syoueimaru

Last reported at 2016-Jan-26 05:33 UTC. Time now 2016-Feb-14 12:44 UTC.
Position N 35°13' E 139°46'.
Warning: this ship's position is 19 days out of date.

Length 79 m; draft 4.1 m.

Type: Other ship. MMSI: 431500094.

Date/timePositionNaut miles runAvg speedWind from/ knotsBaromVisibWave heightAir tempDewpointWater temp
2016-Jan-26 05:33N 35°13' E 139°46'1010.2
2016-Jan-26 04:33N 35°22' E 139°41'0 0.5
2016-Jan-26 03:33N 35°23' E 139°40'2 1.8
2016-Jan-26 02:33N 35°24' E 139°42'0 0.0
2016-Jan-26 01:31N 35°24' E 139°42'0 0.0
2016-Jan-26 00:31N 35°24' E 139°42'0 0.0
2016-Jan-25 23:31N 35°24' E 139°42'0 0.0
2016-Jan-25 22:33N 35°24' E 139°42'2 1.5
2016-Jan-25 21:33N 35°23' E 139°40'0 0.1
2016-Jan-25 20:31N 35°23' E 139°40'0 0.0
2016-Jan-25 19:31N 35°23' E 139°40'0 0.1
2016-Jan-25 18:31N 35°23' E 139°40'0 0.0
2016-Jan-25 17:31N 35°23' E 139°40'0 0.1
2016-Jan-25 16:31N 35°23' E 139°40'4 4.6
2016-Jan-25 15:34N 35°19' E 139°43'9 8.9
2016-Jan-25 14:34N 35°11' E 139°45'1410.1
2016-Jan-25 13:10N 35°01' E 139°33'  
2016-Jan-22 04:07N 35°09' E 139°44'610.5
2016-Jan-22 03:33N 35°15' E 139°46'10 9.9
2016-Jan-22 02:33N 35°23' E 139°40'0 0.4
2016-Jan-22 01:33N 35°23' E 139°40'1 1.4
2016-Jan-22 00:33N 35°24' E 139°42'0 0.0
2016-Jan-21 23:33N 35°24' E 139°42'0 0.0
2016-Jan-21 22:33N 35°24' E 139°42'2 1.6
2016-Jan-21 21:34N 35°23' E 139°40'0 0.1
2016-Jan-21 20:33N 35°23' E 139°40'0 0.0
2016-Jan-21 19:33N 35°23' E 139°40'0 0.1
2016-Jan-21 18:33N 35°23' E 139°40'8 8.4
2016-Jan-21 17:33N 35°16' E 139°46'10 9.6
2016-Jan-21 16:33N 35°07' E 139°43'  
Track history (hours):
 
Tides and Currents Weather Stations Pressure Air Temp Water Temp Dewpoint Dewpoint Depression Visibility Wind Speed Wind Dir Waves Ship Positions

Syoueimaru

Last reported at 2016-Jan-26 05:33 UTC. Time now 2016-Feb-14 12:44 UTC.
Position N 35°13' E 139°46'.
Warning: this ship's position is 19 days out of date.

Length 79 m; draft 4.1 m.

Type: Other ship. MMSI: 431500094.

Date/timePositionNaut miles runAvg speedWind from/ knotsBaromVisibWave heightAir tempDewpointWater temp
2016-Jan-26 05:33N 35°13' E 139°46'1010.2
2016-Jan-26 04:33N 35°22' E 139°41'0 0.5
2016-Jan-26 03:33N 35°23' E 139°40'2 1.8
2016-Jan-26 02:33N 35°24' E 139°42'0 0.0
2016-Jan-26 01:31N 35°24' E 139°42'0 0.0
2016-Jan-26 00:31N 35°24' E 139°42'0 0.0
2016-Jan-25 23:31N 35°24' E 139°42'0 0.0
2016-Jan-25 22:33N 35°24' E 139°42'2 1.5
2016-Jan-25 21:33N 35°23' E 139°40'0 0.1
2016-Jan-25 20:31N 35°23' E 139°40'0 0.0
2016-Jan-25 19:31N 35°23' E 139°40'0 0.1
2016-Jan-25 18:31N 35°23' E 139°40'0 0.0
2016-Jan-25 17:31N 35°23' E 139°40'0 0.1
2016-Jan-25 16:31N 35°23' E 139°40'4 4.6
2016-Jan-25 15:34N 35°19' E 139°43'9 8.9
2016-Jan-25 14:34N 35°11' E 139°45'1410.1
2016-Jan-25 13:10N 35°01' E 139°33'  
2016-Jan-22 04:07N 35°09' E 139°44'610.5
2016-Jan-22 03:33N 35°15' E 139°46'10 9.9
2016-Jan-22 02:33N 35°23' E 139°40'0 0.4
2016-Jan-22 01:33N 35°23' E 139°40'1 1.4
2016-Jan-22 00:33N 35°24' E 139°42'0 0.0
2016-Jan-21 23:33N 35°24' E 139°42'0 0.0
2016-Jan-21 22:33N 35°24' E 139°42'2 1.6
2016-Jan-21 21:34N 35°23' E 139°40'0 0.1
2016-Jan-21 20:33N 35°23' E 139°40'0 0.0
2016-Jan-21 19:33N 35°23' E 139°40'0 0.1
2016-Jan-21 18:33N 35°23' E 139°40'8 8.4
2016-Jan-21 17:33N 35°16' E 139°46'10 9.6
2016-Jan-21 16:33N 35°07' E 139°43'  

Dump ship's entire track history